Time;durP1;ratioP1;P1;durP2;ratioP2;P2;SDS_P1;SDS_P2;PMS_P1;PMS_P2;Temp;Humidity;BMP_temperature;BMP_pressure;BME280_temperature;BME280_humidity;BME280_pressure;Samples;Min_cycle;Max_cycle;Signal;HPM_P1;HPM_P2
2022/10/09 00:01:15;;;;;;;5.20;3.47;;;;;;;;;;5082725;28;20244;-75
2022/10/09 00:03:43;;;;;;;5.30;3.53;;;;;;;;;;5084055;28;20203;-75
2022/10/09 00:06:10;;;;;;;5.47;3.50;;;;;;;;;;5086389;28;20295;-75
2022/10/09 00:08:38;;;;;;;6.60;3.70;;;;;;;;;;5071900;28;20184;-75
2022/10/09 00:11:08;;;;;;;4.53;3.73;;;;;;;;;;5085163;28;20177;-75
2022/10/09 00:13:34;;;;;;;7.43;4.60;;;;;;;;;;5082524;28;20173;-75
2022/10/09 00:16:04;;;;;;;6.37;4.00;;;;;;;;;;5082974;28;20181;-75
2022/10/09 00:18:30;;;;;;;8.10;4.53;;;;;;;;;;5056147;28;20191;-75
2022/10/09 00:20:57;;;;;;;5.57;4.30;;;;;;;;;;5082020;28;20177;-75
2022/10/09 00:23:23;;;;;;;5.27;3.77;;;;;;;;;;5081520;28;20691;-75
2022/10/09 00:25:56;;;;;;;6.63;4.07;;;;;;;;;;5063830;28;20199;-75
2022/10/09 00:28:24;;;;;;;6.43;3.87;;;;;;;;;;5078395;28;20711;-75
2022/10/09 00:30:50;;;;;;;6.70;3.60;;;;;;;;;;5073110;28;20594;-75
2022/10/09 00:33:17;;;;;;;6.53;3.50;;;;;;;;;;5079335;28;20220;-75
2022/10/09 00:35:43;;;;;;;6.67;3.97;;;;;;;;;;5080044;28;20180;-75
2022/10/09 00:38:10;;;;;;;6.73;3.83;;;;;;;;;;5059713;28;20276;-75
2022/10/09 00:40:36;;;;;;;5.20;3.57;;;;;;;;;;5084572;28;20298;-75
2022/10/09 00:43:03;;;;;;;7.03;3.73;;;;;;;;;;5083522;28;20196;-75
2022/10/09 00:45:29;;;;;;;5.03;3.70;;;;;;;;;;5079779;28;20237;-75
2022/10/09 00:47:57;;;;;;;5.77;3.70;;;;;;;;;;5082258;28;20305;-75
2022/10/09 00:50:24;;;;;;;8.80;4.20;;;;;;;;;;5075643;28;20238;-75
2022/10/09 00:52:56;;;;;;;8.67;4.10;;;;;;;;;;5083473;28;20200;-75
2022/10/09 00:55:23;;;;;;;3.60;3.30;;;;;;;;;;5077327;28;20181;-75
2022/10/09 00:57:50;;;;;;;4.40;3.17;;;;;;;;;;5064791;28;20177;-75
2022/10/09 01:00:16;;;;;;;4.80;3.27;;;;;;;;;;5086126;28;20196;-75
2022/10/09 01:02:42;;;;;;;4.30;3.23;;;;;;;;;;5079544;28;20224;-75
2022/10/09 01:05:09;;;;;;;5.50;3.33;;;;;;;;;;5079695;28;20177;-75
2022/10/09 01:07:42;;;;;;;5.60;3.27;;;;;;;;;;5084907;28;20279;-75
2022/10/09 01:10:26;;;;;;;4.80;3.00;;;;;;;;;;5085302;28;20182;-75
2022/10/09 01:12:52;;;;;;;5.80;3.70;;;;;;;;;;5086383;28;20782;-75
2022/10/09 01:15:31;;;;;;;8.03;4.33;;;;;;;;;;5069811;28;20176;-75
2022/10/09 01:18:02;;;;;;;9.00;4.77;;;;;;;;;;5074475;28;20180;-75
2022/10/09 01:20:34;;;;;;;7.33;4.40;;;;;;;;;;5076582;28;20212;-75
2022/10/09 01:23:19;;;;;;;8.00;4.27;;;;;;;;;;5060438;28;20213;-75
2022/10/09 01:25:51;;;;;;;6.80;4.57;;;;;;;;;;5078378;28;20228;-75
2022/10/09 01:28:19;;;;;;;8.33;4.67;;;;;;;;;;5054894;28;20188;-75
2022/10/09 01:30:45;;;;;;;8.70;4.57;;;;;;;;;;5070387;28;20648;-75
2022/10/09 01:33:11;;;;;;;6.67;5.10;;;;;;;;;;5085556;28;20196;-75
2022/10/09 01:35:38;;;;;;;7.90;4.93;;;;;;;;;;5077569;28;20649;-75
2022/10/09 01:38:04;;;;;;;6.97;5.20;;;;;;;;;;5084839;28;20169;-75
2022/10/09 01:40:30;;;;;;;6.93;5.03;;;;;;;;;;5081071;28;20184;-75
2022/10/09 01:42:57;;;;;;;5.27;4.77;;;;;;;;;;5084523;28;20207;-75
2022/10/09 01:45:24;;;;;;;7.20;5.30;;;;;;;;;;5083989;28;20192;-75
2022/10/09 01:47:50;;;;;;;6.27;4.53;;;;;;;;;;5081606;28;20216;-75
2022/10/09 01:50:19;;;;;;;6.43;4.80;;;;;;;;;;5075410;28;20817;-75
2022/10/09 01:52:45;;;;;;;8.73;5.07;;;;;;;;;;5081431;28;20236;-75
2022/10/09 01:55:30;;;;;;;8.13;4.63;;;;;;;;;;5083694;28;20719;-75
2022/10/09 01:58:14;;;;;;;9.03;4.73;;;;;;;;;;5078105;28;20956;-75
2022/10/09 02:00:51;;;;;;;6.37;4.63;;;;;;;;;;5087154;28;20207;-75
2022/10/09 02:03:17;;;;;;;7.13;4.80;;;;;;;;;;5078574;28;20192;-75
2022/10/09 02:05:45;;;;;;;9.90;4.60;;;;;;;;;;5085344;28;20180;-75
2022/10/09 02:08:13;;;;;;;9.17;5.23;;;;;;;;;;5064302;28;20306;-75
2022/10/09 02:10:40;;;;;;;6.27;4.67;;;;;;;;;;5082027;28;20219;-75
2022/10/09 02:13:07;;;;;;;9.47;4.93;;;;;;;;;;5079323;28;20201;-75
2022/10/09 02:15:57;;;;;;;5.70;4.53;;;;;;;;;;5060723;28;20192;-75
2022/10/09 02:18:31;;;;;;;9.53;5.20;;;;;;;;;;5077177;28;20696;-75
2022/10/09 02:21:02;;;;;;;9.90;5.87;;;;;;;;;;5082394;28;20191;-75
2022/10/09 02:23:28;;;;;;;7.73;5.00;;;;;;;;;;5082142;28;20161;-75
2022/10/09 02:25:55;;;;;;;6.53;5.20;;;;;;;;;;5069226;28;20196;-75
2022/10/09 02:28:21;;;;;;;8.73;5.33;;;;;;;;;;5080931;28;20173;-75
2022/10/09 02:30:51;;;;;;;7.43;5.43;;;;;;;;;;5084811;28;20271;-75
2022/10/09 02:33:17;;;;;;;8.03;5.70;;;;;;;;;;5078959;28;20181;-75
2022/10/09 02:35:43;;;;;;;6.40;5.27;;;;;;;;;;5086625;28;20848;-75
2022/10/09 02:38:10;;;;;;;8.80;5.50;;;;;;;;;;5087030;28;20183;-75
2022/10/09 02:40:36;;;;;;;6.67;5.00;;;;;;;;;;5084945;28;20264;-75
2022/10/09 02:43:02;;;;;;;7.57;5.20;;;;;;;;;;5086217;28;20208;-75
2022/10/09 02:45:28;;;;;;;8.83;5.03;;;;;;;;;;5079904;28;20184;-75
2022/10/09 02:47:54;;;;;;;8.37;5.70;;;;;;;;;;5084421;28;20228;-75
2022/10/09 02:50:20;;;;;;;8.83;5.77;;;;;;;;;;5084693;28;20198;-75
2022/10/09 02:52:46;;;;;;;6.33;5.03;;;;;;;;;;5082437;28;20781;-75
2022/10/09 02:55:12;;;;;;;6.97;5.50;;;;;;;;;;5084217;28;20181;-75
2022/10/09 02:57:39;;;;;;;6.70;5.63;;;;;;;;;;5086809;28;20181;-75
2022/10/09 03:00:05;;;;;;;8.07;6.00;;;;;;;;;;5086831;28;20188;-75
2022/10/09 03:02:31;;;;;;;6.33;5.27;;;;;;;;;;5070256;28;20338;-75
2022/10/09 03:04:57;;;;;;;7.83;5.83;;;;;;;;;;5072944;28;20181;-75
2022/10/09 03:07:24;;;;;;;9.33;5.90;;;;;;;;;;5082500;28;20910;-75
2022/10/09 03:09:50;;;;;;;8.60;5.63;;;;;;;;;;5086543;28;20173;-75
2022/10/09 03:12:20;;;;;;;9.00;5.83;;;;;;;;;;5080363;28;20200;-75
2022/10/09 03:14:46;;;;;;;9.67;5.77;;;;;;;;;;5086519;28;20644;-75
2022/10/09 03:17:12;;;;;;;7.23;5.33;;;;;;;;;;5084611;28;20176;-75
2022/10/09 03:19:38;;;;;;;8.77;5.73;;;;;;;;;;5079061;28;20184;-75
2022/10/09 03:22:04;;;;;;;8.77;5.70;;;;;;;;;;5065698;28;20683;-75
2022/10/09 03:24:30;;;;;;;8.57;5.60;;;;;;;;;;5085499;28;20275;-75
2022/10/09 03:26:57;;;;;;;7.03;5.30;;;;;;;;;;5090753;28;20208;-75
2022/10/09 03:29:23;;;;;;;7.23;5.70;;;;;;;;;;5083646;28;20238;-75
2022/10/09 03:31:49;;;;;;;6.57;5.27;;;;;;;;;;5078298;28;20203;-75
2022/10/09 03:34:15;;;;;;;8.07;5.97;;;;;;;;;;5084874;28;20183;-75
2022/10/09 03:36:41;;;;;;;7.87;5.50;;;;;;;;;;5074906;28;20192;-75
2022/10/09 03:39:07;;;;;;;7.13;5.30;;;;;;;;;;5088274;28;20413;-75
2022/10/09 03:41:34;;;;;;;8.20;5.67;;;;;;;;;;5085608;28;20199;-75
2022/10/09 03:44:00;;;;;;;6.53;5.63;;;;;;;;;;5090320;28;20890;-75
2022/10/09 03:46:26;;;;;;;5.90;5.23;;;;;;;;;;5089406;28;20208;-75
2022/10/09 03:48:52;;;;;;;9.43;5.60;;;;;;;;;;5082606;28;20317;-75
2022/10/09 03:51:18;;;;;;;9.97;6.90;;;;;;;;;;5090807;28;20326;-75
2022/10/09 03:53:44;;;;;;;8.30;6.20;;;;;;;;;;5086707;28;20241;-75
2022/10/09 03:56:11;;;;;;;10.07;6.90;;;;;;;;;;5081544;28;20189;-75
2022/10/09 03:58:37;;;;;;;9.07;6.40;;;;;;;;;;5065687;28;20172;-75
2022/10/09 04:01:03;;;;;;;7.80;5.50;;;;;;;;;;5081490;28;20195;-75
2022/10/09 04:03:29;;;;;;;7.23;5.93;;;;;;;;;;5084752;28;20187;-75
2022/10/09 04:05:55;;;;;;;8.30;6.60;;;;;;;;;;5086820;28;20184;-75
2022/10/09 04:08:21;;;;;;;7.80;6.23;;;;;;;;;;5080577;28;20189;-75
2022/10/09 04:10:47;;;;;;;6.90;5.83;;;;;;;;;;5087826;28;20187;-75
2022/10/09 04:13:13;;;;;;;8.03;5.50;;;;;;;;;;5090466;28;20276;-75
2022/10/09 04:15:39;;;;;;;8.73;6.10;;;;;;;;;;5083693;28;20173;-75
2022/10/09 04:18:06;;;;;;;8.03;5.93;;;;;;;;;;5083386;28;20665;-75
2022/10/09 04:20:32;;;;;;;9.17;6.20;;;;;;;;;;5070425;28;20639;-75
2022/10/09 04:22:58;;;;;;;8.43;6.40;;;;;;;;;;5090125;28;20197;-75
2022/10/09 04:25:24;;;;;;;9.00;6.20;;;;;;;;;;5086745;28;20181;-75
2022/10/09 04:27:51;;;;;;;9.20;6.57;;;;;;;;;;5085184;28;20196;-75
2022/10/09 04:30:17;;;;;;;11.30;6.77;;;;;;;;;;5085601;28;20181;-75
2022/10/09 04:32:43;;;;;;;9.43;6.80;;;;;;;;;;5084982;28;20205;-75
2022/10/09 04:35:09;;;;;;;8.43;7.00;;;;;;;;;;5085116;28;20533;-75
2022/10/09 04:37:35;;;;;;;9.07;6.30;;;;;;;;;;5083326;28;20287;-76
2022/10/09 04:40:02;;;;;;;9.77;6.10;;;;;;;;;;5083985;28;20184;-75
2022/10/09 04:42:28;;;;;;;10.47;6.83;;;;;;;;;;5080308;28;20215;-75
2022/10/09 04:44:54;;;;;;;10.03;6.60;;;;;;;;;;5082287;28;20594;-75
2022/10/09 04:47:20;;;;;;;10.00;7.03;;;;;;;;;;5080586;28;20197;-75
2022/10/09 04:49:47;;;;;;;12.20;7.20;;;;;;;;;;5084625;28;20181;-75
2022/10/09 04:52:13;;;;;;;9.97;7.20;;;;;;;;;;5081773;28;20230;-75
2022/10/09 04:54:39;;;;;;;10.13;6.53;;;;;;;;;;5082833;28;20177;-75
2022/10/09 04:57:05;;;;;;;15.10;6.80;;;;;;;;;;5080422;28;20184;-75
2022/10/09 04:59:31;;;;;;;9.47;7.03;;;;;;;;;;5080496;28;20185;-75
2022/10/09 05:01:57;;;;;;;9.37;7.27;;;;;;;;;;5071436;28;20710;-75
2022/10/09 05:04:24;;;;;;;10.80;7.20;;;;;;;;;;5071962;28;20185;-75
2022/10/09 05:06:50;;;;;;;10.40;6.70;;;;;;;;;;5074468;28;20209;-75
2022/10/09 05:09:16;;;;;;;9.87;7.40;;;;;;;;;;5080430;28;20173;-75
2022/10/09 05:11:42;;;;;;;9.90;6.40;;;;;;;;;;5078352;28;20261;-75
2022/10/09 05:14:08;;;;;;;9.13;6.70;;;;;;;;;;5088272;28;20184;-75
2022/10/09 05:16:34;;;;;;;8.27;6.57;;;;;;;;;;5078642;28;20181;-75
2022/10/09 05:19:00;;;;;;;10.37;7.27;;;;;;;;;;5089731;28;20234;-75
2022/10/09 05:21:28;;;;;;;8.87;7.20;;;;;;;;;;5088952;28;20210;-75
2022/10/09 05:23:54;;;;;;;8.80;6.88;;;;;;;;;;5077934;28;20908;-75
2022/10/09 05:26:21;;;;;;;11.13;6.63;;;;;;;;;;5082457;28;20270;-75
2022/10/09 05:28:48;;;;;;;11.47;6.30;;;;;;;;;;5059918;28;20208;-75
2022/10/09 05:31:27;;;;;;;8.93;6.50;;;;;;;;;;5088644;28;20242;-75
2022/10/09 05:33:54;;;;;;;10.23;7.07;;;;;;;;;;5087379;28;20759;-75
2022/10/09 05:36:21;;;;;;;9.87;6.70;;;;;;;;;;5063401;28;20184;-74
2022/10/09 05:38:47;;;;;;;6.47;5.73;;;;;;;;;;5084732;28;20179;-75
2022/10/09 05:41:14;;;;;;;8.47;6.03;;;;;;;;;;5082367;28;20205;-75
2022/10/09 05:43:42;;;;;;;8.50;6.30;;;;;;;;;;5076724;28;20242;-75
2022/10/09 05:46:09;;;;;;;6.80;6.10;;;;;;;;;;5080793;28;20196;-75
2022/10/09 05:48:36;;;;;;;8.07;6.03;;;;;;;;;;5084060;28;20776;-76
2022/10/09 05:51:07;;;;;;;10.57;6.23;;;;;;;;;;5079942;28;20185;-75
2022/10/09 05:53:34;;;;;;;9.00;6.00;;;;;;;;;;5080246;28;20173;-75
2022/10/09 05:56:14;;;;;;;8.27;6.80;;;;;;;;;;5084135;28;20238;-75
2022/10/09 05:58:40;;;;;;;8.10;6.47;;;;;;;;;;5083431;28;20218;-75
2022/10/09 06:01:07;;;;;;;8.27;5.83;;;;;;;;;;5067463;28;20265;-75
2022/10/09 06:03:37;;;;;;;7.87;6.07;;;;;;;;;;5081789;28;20841;-75
2022/10/09 06:06:04;;;;;;;8.90;6.20;;;;;;;;;;5083621;28;20252;-75
2022/10/09 06:08:32;;;;;;;8.30;5.90;;;;;;;;;;5070655;28;20671;-75
2022/10/09 06:10:58;;;;;;;7.43;5.50;;;;;;;;;;5087678;28;20233;-75
2022/10/09 06:13:24;;;;;;;7.60;5.97;;;;;;;;;;5083782;28;20558;-75
2022/10/09 06:15:51;;;;;;;9.83;6.30;;;;;;;;;;5065312;28;20177;-75
2022/10/09 06:18:17;;;;;;;6.47;5.87;;;;;;;;;;5080452;28;20259;-75
2022/10/09 06:20:52;;;;;;;8.03;5.73;;;;;;;;;;5068805;28;20544;-75
2022/10/09 06:23:18;;;;;;;10.97;5.33;;;;;;;;;;5087525;28;20183;-75
2022/10/09 06:25:54;;;;;;;8.67;5.80;;;;;;;;;;5081496;28;20199;-72
2022/10/09 06:28:21;;;;;;;10.50;7.00;;;;;;;;;;5083708;28;20207;-74
2022/10/09 06:30:48;;;;;;;9.10;6.10;;;;;;;;;;5084469;28;20923;-74
2022/10/09 06:33:14;;;;;;;7.77;5.97;;;;;;;;;;5079852;28;20631;-75
2022/10/09 06:35:40;;;;;;;9.17;5.80;;;;;;;;;;5068466;28;20184;-75
2022/10/09 06:38:07;;;;;;;8.00;6.37;;;;;;;;;;5080356;28;20213;-73
2022/10/09 06:40:36;;;;;;;8.47;6.43;;;;;;;;;;5060327;28;20214;-74
2022/10/09 06:43:03;;;;;;;10.97;6.10;;;;;;;;;;5079586;28;20309;-74
2022/10/09 06:45:29;;;;;;;8.83;6.63;;;;;;;;;;5077914;28;20191;-71
2022/10/09 06:47:56;;;;;;;8.77;6.03;;;;;;;;;;5078591;28;20282;-76
2022/10/09 06:50:22;;;;;;;8.80;7.00;;;;;;;;;;5077914;28;20165;-76
2022/10/09 06:52:49;;;;;;;10.33;6.60;;;;;;;;;;5078596;28;20192;-76
2022/10/09 06:55:15;;;;;;;10.90;6.10;;;;;;;;;;5076038;28;20184;-76
2022/10/09 06:57:41;;;;;;;8.53;6.33;;;;;;;;;;5059163;28;20643;-76
2022/10/09 07:00:08;;;;;;;7.30;5.93;;;;;;;;;;5076174;28;20200;-76
2022/10/09 07:02:35;;;;;;;9.97;5.40;;;;;;;;;;5060116;28;20209;-76
2022/10/09 07:05:02;;;;;;;7.80;4.70;;;;;;;;;;5075487;28;20180;-76
2022/10/09 07:07:28;;;;;;;11.23;4.47;;;;;;;;;;5076853;28;20204;-76
2022/10/09 07:09:54;;;;;;;7.13;4.37;;;;;;;;;;5076244;28;20208;-76
2022/10/09 07:12:20;;;;;;;9.30;4.33;;;;;;;;;;5076955;28;20197;-76
2022/10/09 07:14:46;;;;;;;6.50;3.97;;;;;;;;;;5076630;28;20177;-76
2022/10/09 07:17:12;;;;;;;11.23;4.40;;;;;;;;;;5076474;28;20177;-76
2022/10/09 07:19:39;;;;;;;5.00;3.70;;;;;;;;;;5059475;28;20383;-76
2022/10/09 07:22:10;;;;;;;9.10;3.83;;;;;;;;;;5077712;28;20205;-76
2022/10/09 07:24:36;;;;;;;4.40;3.57;;;;;;;;;;5076517;28;20199;-75
2022/10/09 07:27:02;;;;;;;7.30;3.77;;;;;;;;;;5058092;28;20217;-75
2022/10/09 07:29:29;;;;;;;7.70;3.43;;;;;;;;;;5077812;28;20199;-75
2022/10/09 07:31:55;;;;;;;6.93;4.03;;;;;;;;;;5075303;28;20229;-75
2022/10/09 07:34:27;;;;;;;5.90;3.40;;;;;;;;;;5075848;28;20319;-74
2022/10/09 07:36:54;;;;;;;7.00;3.83;;;;;;;;;;5076424;28;20184;-76
2022/10/09 07:39:21;;;;;;;5.50;3.60;;;;;;;;;;5076909;28;20200;-76
2022/10/09 07:41:49;;;;;;;6.20;3.43;;;;;;;;;;5080706;28;20200;-80
2022/10/09 07:44:15;;;;;;;5.87;3.30;;;;;;;;;;5075926;28;20656;-77
2022/10/09 07:46:41;;;;;;;6.53;3.20;;;;;;;;;;5078423;28;20220;-78
2022/10/09 07:49:07;;;;;;;7.50;3.40;;;;;;;;;;5079138;28;20688;-80
2022/10/09 07:51:34;;;;;;;5.67;3.80;;;;;;;;;;5061651;28;20529;-76
2022/10/09 07:54:01;;;;;;;7.83;3.53;;;;;;;;;;5057155;28;20192;-76
2022/10/09 07:56:28;;;;;;;5.27;3.40;;;;;;;;;;5059823;28;20730;-74
2022/10/09 07:58:56;;;;;;;6.33;3.13;;;;;;;;;;5077790;28;20184;-74
2022/10/09 08:01:22;;;;;;;5.60;3.07;;;;;;;;;;5075805;28;20233;-74
2022/10/09 08:03:49;;;;;;;5.60;3.00;;;;;;;;;;5076122;28;20664;-75
2022/10/09 08:06:15;;;;;;;5.17;3.33;;;;;;;;;;5075934;28;20185;-74
2022/10/09 08:08:42;;;;;;;8.63;3.07;;;;;;;;;;5076870;28;20188;-74
2022/10/09 08:11:09;;;;;;;4.90;3.00;;;;;;;;;;5075362;28;20221;-76
2022/10/09 08:13:36;;;;;;;4.17;2.90;;;;;;;;;;5078045;28;20177;-75
2022/10/09 08:16:02;;;;;;;5.63;3.43;;;;;;;;;;5075132;28;20185;-74
2022/10/09 08:18:28;;;;;;;4.63;3.40;;;;;;;;;;5071973;28;20589;-74
2022/10/09 08:21:02;;;;;;;4.87;3.03;;;;;;;;;;5057968;28;20178;-74
2022/10/09 08:23:28;;;;;;;5.13;3.07;;;;;;;;;;5075986;28;20692;-74
2022/10/09 08:25:55;;;;;;;5.87;3.23;;;;;;;;;;5077017;28;20256;-74
2022/10/09 08:28:21;;;;;;;4.80;3.07;;;;;;;;;;5076939;28;20216;-74
2022/10/09 08:30:47;;;;;;;4.87;3.20;;;;;;;;;;5076228;28;20184;-74
2022/10/09 08:33:14;;;;;;;5.10;3.10;;;;;;;;;;5072850;28;20256;-74
2022/10/09 08:35:40;;;;;;;3.73;3.10;;;;;;;;;;5076359;28;20247;-74
2022/10/09 08:38:06;;;;;;;5.83;2.80;;;;;;;;;;5058393;28;20194;-73
2022/10/09 08:40:39;;;;;;;3.80;2.80;;;;;;;;;;5078269;28;20170;-74
2022/10/09 08:43:06;;;;;;;4.17;2.83;;;;;;;;;;5042693;28;20219;-74
2022/10/09 08:45:33;;;;;;;5.07;2.77;;;;;;;;;;5054903;28;20202;-73
2022/10/09 08:48:06;;;;;;;4.87;2.70;;;;;;;;;;5074564;28;20204;-73
2022/10/09 08:50:34;;;;;;;5.30;2.90;;;;;;;;;;5075833;28;20610;-73
2022/10/09 08:53:05;;;;;;;5.50;2.73;;;;;;;;;;5074745;28;20276;-74
2022/10/09 08:55:35;;;;;;;3.53;2.50;;;;;;;;;;5074554;28;20185;-73
2022/10/09 08:58:04;;;;;;;5.07;2.60;;;;;;;;;;5074947;28;20193;-74
2022/10/09 09:00:39;;;;;;;5.33;2.90;;;;;;;;;;5073166;28;20758;-74
2022/10/09 09:03:08;;;;;;;5.27;2.87;;;;;;;;;;5056507;28;20207;-73
2022/10/09 09:05:58;;;;;;;4.97;2.70;;;;;;;;;;5056858;28;20191;-73
2022/10/09 09:08:28;;;;;;;4.50;2.63;;;;;;;;;;5074078;28;20204;-73
2022/10/09 09:11:01;;;;;;;4.20;2.53;;;;;;;;;;5074064;28;20204;-73
2022/10/09 09:13:37;;;;;;;7.23;2.63;;;;;;;;;;5074576;28;20177;-73
2022/10/09 09:16:14;;;;;;;3.07;2.40;;;;;;;;;;5073405;28;20295;-73
2022/10/09 09:18:47;;;;;;;3.87;2.50;;;;;;;;;;5078013;28;20193;-73
2022/10/09 09:21:20;;;;;;;4.63;2.57;;;;;;;;;;5076724;28;20193;-73
2022/10/09 09:23:47;;;;;;;3.13;2.20;;;;;;;;;;5076798;28;20229;-73
2022/10/09 09:26:16;;;;;;;5.13;2.23;;;;;;;;;;5077728;28;20184;-73
2022/10/09 09:28:43;;;;;;;4.33;2.27;;;;;;;;;;5075712;28;20523;-74
2022/10/09 09:31:16;;;;;;;4.73;2.80;;;;;;;;;;5078080;28;20915;-73
2022/10/09 09:34:02;;;;;;;3.93;2.40;;;;;;;;;;5078291;28;20176;-73
2022/10/09 09:36:34;;;;;;;2.60;2.10;;;;;;;;;;5045606;28;20238;-73
2022/10/09 09:39:00;;;;;;;3.60;2.40;;;;;;;;;;5078123;28;21352;-76
2022/10/09 09:41:27;;;;;;;5.30;2.63;;;;;;;;;;5078454;28;20241;-73
2022/10/09 09:43:54;;;;;;;3.00;1.93;;;;;;;;;;5075622;28;20268;-73
2022/10/09 09:46:22;;;;;;;3.87;2.30;;;;;;;;;;5073298;28;20243;-73
2022/10/09 09:48:49;;;;;;;4.73;2.13;;;;;;;;;;5074581;28;20970;-73
2022/10/09 09:51:19;;;;;;;3.43;2.17;;;;;;;;;;5073067;28;20566;-73
2022/10/09 09:53:51;;;;;;;5.13;2.40;;;;;;;;;;5074968;28;20214;-74
2022/10/09 09:56:18;;;;;;;3.77;2.10;;;;;;;;;;5075191;28;20287;-75
2022/10/09 09:58:46;;;;;;;4.63;2.30;;;;;;;;;;5075290;28;20181;-73
2022/10/09 10:01:26;;;;;;;5.23;2.43;;;;;;;;;;5055668;28;20266;-74
2022/10/09 10:03:54;;;;;;;3.67;2.00;;;;;;;;;;5072984;28;20184;-73
2022/10/09 10:06:24;;;;;;;3.17;2.03;;;;;;;;;;5070399;28;20181;-73
2022/10/09 10:09:00;;;;;;;3.77;2.20;;;;;;;;;;5072884;28;20176;-74
2022/10/09 10:11:27;;;;;;;3.43;2.30;;;;;;;;;;5075603;28;20197;-74
2022/10/09 10:13:53;;;;;;;4.03;2.33;;;;;;;;;;5077531;28;20648;-74
2022/10/09 10:16:21;;;;;;;4.37;2.20;;;;;;;;;;5076671;28;20230;-74
2022/10/09 10:18:48;;;;;;;2.33;1.83;;;;;;;;;;5075743;28;20177;-74
2022/10/09 10:21:15;;;;;;;5.30;2.47;;;;;;;;;;5078790;28;21652;-76
2022/10/09 10:23:43;;;;;;;4.83;2.03;;;;;;;;;;5061260;28;20207;-74
2022/10/09 10:26:09;;;;;;;2.60;2.13;;;;;;;;;;5078336;28;20255;-73
2022/10/09 10:28:40;;;;;;;3.43;2.20;;;;;;;;;;5078902;28;20717;-73
2022/10/09 10:31:12;;;;;;;3.97;2.10;;;;;;;;;;5071771;28;20745;-74
2022/10/09 10:33:40;;;;;;;2.53;1.97;;;;;;;;;;5077482;28;20188;-76
2022/10/09 10:36:09;;;;;;;2.43;1.90;;;;;;;;;;5075626;28;20720;-75
2022/10/09 10:38:40;;;;;;;3.40;1.83;;;;;;;;;;5077007;28;20595;-75
2022/10/09 10:41:13;;;;;;;3.57;2.20;;;;;;;;;;5076990;28;20745;-74
2022/10/09 10:43:42;;;;;;;3.43;1.80;;;;;;;;;;5077881;28;20196;-73
2022/10/09 10:46:37;;;;;;;4.13;2.00;;;;;;;;;;5077800;28;20196;-74
2022/10/09 10:49:04;;;;;;;3.33;1.90;;;;;;;;;;5023841;28;20216;-73
2022/10/09 10:51:46;;;;;;;3.27;2.00;;;;;;;;;;5077023;28;20680;-73
2022/10/09 10:54:12;;;;;;;3.77;2.10;;;;;;;;;;5078406;28;20260;-72
2022/10/09 10:56:40;;;;;;;1.77;1.60;;;;;;;;;;5075640;28;20193;-73
2022/10/09 10:59:20;;;;;;;3.60;1.90;;;;;;;;;;5076876;28;20520;-73
2022/10/09 11:01:53;;;;;;;3.00;1.70;;;;;;;;;;5077613;28;20702;-73
2022/10/09 11:04:25;;;;;;;2.67;1.70;;;;;;;;;;5076008;28;20203;-73
2022/10/09 11:07:08;;;;;;;4.27;1.70;;;;;;;;;;5076078;28;21473;-73
2022/10/09 11:10:13;;;;;;;3.33;1.60;;;;;;;;;;5076908;28;20218;-72
2022/10/09 11:12:39;;;;;;;3.97;1.47;;;;;;;;;;5003136;28;20229;-72
2022/10/09 11:15:23;;;;;;;2.90;1.63;;;;;;;;;;5001395;28;20210;-72
2022/10/09 11:18:03;;;;;;;2.63;1.40;;;;;;;;;;5046276;28;20193;-74
2022/10/09 11:20:47;;;;;;;1.80;1.27;;;;;;;;;;5076880;28;20229;-72
2022/10/09 11:23:16;;;;;;;1.73;1.40;;;;;;;;;;5076067;28;20300;-72
2022/10/09 11:25:50;;;;;;;4.20;1.60;;;;;;;;;;5058708;28;20181;-72
2022/10/09 11:28:19;;;;;;;1.97;1.40;;;;;;;;;;5076314;28;20837;-72
2022/10/09 11:30:45;;;;;;;2.00;1.30;;;;;;;;;;5078320;28;20258;-72
2022/10/09 11:33:30;;;;;;;1.90;1.40;;;;;;;;;;5081172;28;20262;-72
2022/10/09 11:35:56;;;;;;;2.13;1.40;;;;;;;;;;5080802;28;20214;-73
2022/10/09 11:38:28;;;;;;;2.47;1.40;;;;;;;;;;5080119;28;20234;-75
2022/10/09 11:40:55;;;;;;;3.20;1.50;;;;;;;;;;5076916;28;20825;-75
2022/10/09 11:43:24;;;;;;;2.27;1.47;;;;;;;;;;5082223;28;20188;-75
2022/10/09 11:46:09;;;;;;;2.03;1.30;;;;;;;;;;5077877;28;20185;-75
2022/10/09 11:48:48;;;;;;;2.00;1.30;;;;;;;;;;5078588;28;20363;-75
2022/10/09 11:51:26;;;;;;;1.83;1.40;;;;;;;;;;5082096;28;20678;-76
2022/10/09 11:53:53;;;;;;;2.87;1.40;;;;;;;;;;5061839;28;21143;-76
2022/10/09 11:56:24;;;;;;;2.80;1.30;;;;;;;;;;5077420;28;20704;-78
2022/10/09 11:59:00;;;;;;;3.43;1.50;;;;;;;;;;5078685;28;20264;-74
2022/10/09 12:01:41;;;;;;;2.50;1.30;;;;;;;;;;5077482;28;20211;-73
2022/10/09 12:04:14;;;;;;;2.27;1.40;;;;;;;;;;5078175;28;20193;-76
2022/10/09 12:06:52;;;;;;;2.00;1.30;;;;;;;;;;5079934;28;20565;-74
2022/10/09 12:09:21;;;;;;;1.60;1.23;;;;;;;;;;5078501;28;20173;-73
2022/10/09 12:11:55;;;;;;;2.80;1.27;;;;;;;;;;5061023;28;20225;-74
2022/10/09 12:14:26;;;;;;;2.30;1.40;;;;;;;;;;5078751;28;20211;-74
2022/10/09 12:16:52;;;;;;;1.57;1.20;;;;;;;;;;5078520;28;20197;-74
2022/10/09 12:19:20;;;;;;;2.20;1.27;;;;;;;;;;5080480;28;20276;-73
2022/10/09 12:21:51;;;;;;;2.10;1.40;;;;;;;;;;5080796;28;20224;-74
2022/10/09 12:24:20;;;;;;;2.37;1.40;;;;;;;;;;5079117;28;20183;-74
2022/10/09 12:26:47;;;;;;;2.03;1.30;;;;;;;;;;5077115;28;20294;-74
2022/10/09 12:29:24;;;;;;;1.77;1.10;;;;;;;;;;5061843;28;20264;-74
2022/10/09 12:31:50;;;;;;;2.70;1.20;;;;;;;;;;5079636;28;20205;-74
2022/10/09 12:34:28;;;;;;;2.27;1.30;;;;;;;;;;5079965;28;20177;-74
2022/10/09 12:37:15;;;;;;;1.47;1.27;;;;;;;;;;5080731;28;20187;-76
2022/10/09 12:39:41;;;;;;;1.70;1.17;;;;;;;;;;5075834;28;20267;-76
2022/10/09 12:42:12;;;;;;;1.90;1.23;;;;;;;;;;5079034;28;20242;-76
2022/10/09 12:44:39;;;;;;;2.13;1.40;;;;;;;;;;5059723;28;20199;-76
2022/10/09 12:47:13;;;;;;;2.23;1.43;;;;;;;;;;5078282;28;20243;-76
2022/10/09 12:49:39;;;;;;;1.87;1.23;;;;;;;;;;5077381;28;20177;-76
2022/10/09 12:52:13;;;;;;;3.17;1.50;;;;;;;;;;5076795;28;20200;-76
2022/10/09 12:54:41;;;;;;;1.83;1.27;;;;;;;;;;5077113;28;20187;-76
2022/10/09 12:57:10;;;;;;;1.93;1.30;;;;;;;;;;5078386;28;20205;-77
2022/10/09 12:59:36;;;;;;;2.33;1.40;;;;;;;;;;5077824;28;20202;-76
2022/10/09 13:02:02;;;;;;;4.13;1.60;;;;;;;;;;5061930;28;20201;-76
2022/10/09 13:04:31;;;;;;;2.63;1.70;;;;;;;;;;5076809;28;20605;-76
2022/10/09 13:06:58;;;;;;;1.83;1.40;;;;;;;;;;5077453;28;20568;-76
2022/10/09 13:09:27;;;;;;;1.80;1.30;;;;;;;;;;5059777;28;20194;-76
2022/10/09 13:11:55;;;;;;;1.60;1.50;;;;;;;;;;5061130;28;20198;-76
2022/10/09 13:14:48;;;;;;;2.63;1.50;;;;;;;;;;5061835;28;20279;-76
2022/10/09 13:17:40;;;;;;;1.73;1.33;;;;;;;;;;5041974;28;20579;-76
2022/10/09 13:20:13;;;;;;;1.90;1.30;;;;;;;;;;5057591;28;20664;-75
2022/10/09 13:22:39;;;;;;;4.60;1.30;;;;;;;;;;5082007;28;20266;-75
2022/10/09 13:25:06;;;;;;;2.23;1.40;;;;;;;;;;5080355;28;20185;-75
2022/10/09 13:27:39;;;;;;;3.07;1.33;;;;;;;;;;5078279;28;20269;-75
2022/10/09 13:30:05;;;;;;;2.63;1.33;;;;;;;;;;5080328;28;20163;-75
2022/10/09 13:32:32;;;;;;;2.03;1.30;;;;;;;;;;5079649;28;20768;-75
2022/10/09 13:34:58;;;;;;;1.97;1.30;;;;;;;;;;5060748;28;20178;-75
2022/10/09 13:37:25;;;;;;;3.17;1.50;;;;;;;;;;5076642;28;20181;-75
2022/10/09 13:39:55;;;;;;;2.00;1.50;;;;;;;;;;5078181;28;20193;-75
2022/10/09 13:42:23;;;;;;;2.07;1.37;;;;;;;;;;5077443;28;20667;-75
2022/10/09 13:44:50;;;;;;;1.70;1.60;;;;;;;;;;5042017;28;20231;-75
2022/10/09 13:47:16;;;;;;;2.13;1.50;;;;;;;;;;5078177;28;20314;-75
2022/10/09 13:49:42;;;;;;;3.07;1.67;;;;;;;;;;5059863;28;20236;-75
2022/10/09 13:52:09;;;;;;;2.87;1.73;;;;;;;;;;5077468;28;20198;-75
2022/10/09 13:54:35;;;;;;;2.47;1.50;;;;;;;;;;5076654;28;20177;-75
2022/10/09 13:57:01;;;;;;;1.97;1.47;;;;;;;;;;5080148;28;20181;-75
2022/10/09 13:59:30;;;;;;;2.00;1.60;;;;;;;;;;5075995;28;20686;-75
2022/10/09 14:01:56;;;;;;;1.77;1.57;;;;;;;;;;5058633;28;20227;-75
2022/10/09 14:04:22;;;;;;;2.40;1.60;;;;;;;;;;5077635;28;20269;-75
2022/10/09 14:06:48;;;;;;;2.30;1.60;;;;;;;;;;5080332;28;20206;-75
2022/10/09 14:09:14;;;;;;;3.70;1.57;;;;;;;;;;5077916;28;20199;-75
2022/10/09 14:11:41;;;;;;;1.77;1.63;;;;;;;;;;5077111;28;20200;-75
2022/10/09 14:14:07;;;;;;;1.50;1.40;;;;;;;;;;5078293;28;20189;-75
2022/10/09 14:16:33;;;;;;;3.60;1.50;;;;;;;;;;5078079;28;20252;-75
2022/10/09 14:19:01;;;;;;;3.43;1.50;;;;;;;;;;5058071;28;20633;-75
2022/10/09 14:21:27;;;;;;;2.80;1.70;;;;;;;;;;5077208;28;20267;-75
2022/10/09 14:23:54;;;;;;;2.23;1.50;;;;;;;;;;5077116;28;20613;-75
2022/10/09 14:26:21;;;;;;;2.53;1.57;;;;;;;;;;5076657;28;20179;-75
2022/10/09 14:28:47;;;;;;;2.17;1.40;;;;;;;;;;5076891;28;20202;-75
2022/10/09 14:31:16;;;;;;;1.97;1.40;;;;;;;;;;5076496;28;20191;-75
2022/10/09 14:33:42;;;;;;;2.07;1.50;;;;;;;;;;5078378;28;20185;-75
2022/10/09 14:36:10;;;;;;;3.47;1.90;;;;;;;;;;5076730;28;20730;-75
2022/10/09 14:38:41;;;;;;;2.57;1.80;;;;;;;;;;5078767;28;20176;-75
2022/10/09 14:41:08;;;;;;;4.33;1.70;;;;;;;;;;5059098;28;20842;-75
2022/10/09 14:43:34;;;;;;;3.40;1.63;;;;;;;;;;5077138;28;20238;-74
2022/10/09 14:46:04;;;;;;;2.13;1.63;;;;;;;;;;5075582;28;20194;-74
2022/10/09 14:48:31;;;;;;;2.60;1.83;;;;;;;;;;5076043;28;20633;-74
2022/10/09 14:51:01;;;;;;;1.90;1.40;;;;;;;;;;5079395;28;20174;-74
2022/10/09 14:53:27;;;;;;;2.77;1.63;;;;;;;;;;5077374;28;20637;-74